シュトゥットガルト の空港の天気 - METARとTAF

シュトゥットガルト空港 ( EDDS / STR ) - ドイツ シュトゥットガルト
飛行場実況気象(Metar)
観測時間09/25 22:50 CEST (09/25 20:50 UTC)
風向・風速西北西 3m/s
視程10km以上
天気現象弱いしゅう雨
全天の8割程度の雲 雲底高度 210m
全天の8割程度の雲 雲底高度 610m
気温11℃
湿度94%
気圧1012hPa
METAREDDS 252050Z AUTO 29006KT 9999 -SHRA BKN007 BKN020 FEW///CB 11/10 Q1012 RESHRA
過去の天気等 Google飛行場航空写真 Wunderground天気予報

過去48時間のMETAR

飛行場予報(TAF)
発表時間: 9/25 21:41 CEST (9/25 19:41 UTC)
予報対象時間: 25日21時 CEST ~ 26日20時 CEST
風向・風速西北西 3m/s
視程10km以上
全天の4割程度の雲 雲底高度 460m
25日21時 CEST ~ 26日1時 CEST に一時的に
全天の8割程度の雲 雲底高度 270m
26日1時 CEST ~ 26日3時 CEST に徐々に
風向・風速不定 2m/s
26日5時 CEST ~ 26日9時 CEST に 確率 30% で一時的に
視程1200m
天気現象散在した霧
26日10時 CEST ~ 26日13時 CEST に徐々に
風向・風速南西 3m/s
26日15時 CEST ~ 26日19時 CEST に 確率 30% で一時的に
天気現象しゅう雨
全天の8割程度の塔状積雲 雲底高度 910m
TAF AMD EDDS 251941Z 2519/2618 29006KT 9999 SCT015
TEMPO 2519/2523 BKN009
BECMG 2523/2601 VRB03KT
PROB30 TEMPO 2603/2607 1200 BCFG
BECMG 2608/2611 22006KT
PROB30 TEMPO 2613/2617 SHRA BKN030TCU